sensor_id;sensor_type;location;lat;lon;timestamp;pressure;altitude;pressure_sealevel;temperature;humidity
43436;BME280;36399;51.444;-2.018;2023-06-01T00:00:25;102014.69;;;10.29;100.00
43436;BME280;36399;51.444;-2.018;2023-06-01T00:02:51;101994.97;;;10.18;100.00
43436;BME280;36399;51.444;-2.018;2023-06-01T00:05:17;102002.84;;;10.18;100.00
43436;BME280;36399;51.444;-2.018;2023-06-01T00:07:43;102010.03;;;10.22;100.00
43436;BME280;36399;51.444;-2.018;2023-06-01T00:10:09;102003.94;;;10.23;100.00
43436;BME280;36399;51.444;-2.018;2023-06-01T00:12:35;101997.03;;;10.25;100.00
43436;BME280;36399;51.444;-2.018;2023-06-01T00:15:01;102000.72;;;10.30;100.00
43436;BME280;36399;51.444;-2.018;2023-06-01T00:17:29;101997.19;;;10.29;100.00
43436;BME280;36399;51.444;-2.018;2023-06-01T00:19:56;101993.38;;;10.21;100.00
43436;BME280;36399;51.444;-2.018;2023-06-01T00:22:22;101995.13;;;10.21;100.00
43436;BME280;36399;51.444;-2.018;2023-06-01T00:24:50;101998.69;;;10.23;100.00
43436;BME280;36399;51.444;-2.018;2023-06-01T00:27:16;101995.34;;;10.27;100.00
43436;BME280;36399;51.444;-2.018;2023-06-01T00:29:41;101985.81;;;10.29;100.00
43436;BME280;36399;51.444;-2.018;2023-06-01T00:32:07;101989.72;;;10.18;100.00
43436;BME280;36399;51.444;-2.018;2023-06-01T00:34:33;101990.88;;;10.24;100.00
43436;BME280;36399;51.444;-2.018;2023-06-01T00:36:59;101990.66;;;10.20;100.00
43436;BME280;36399;51.444;-2.018;2023-06-01T00:39:25;101992.50;;;10.21;100.00
43436;BME280;36399;51.444;-2.018;2023-06-01T00:41:51;102004.97;;;10.26;100.00
43436;BME280;36399;51.444;-2.018;2023-06-01T00:44:17;101998.03;;;10.28;100.00
43436;BME280;36399;51.444;-2.018;2023-06-01T00:46:43;101995.13;;;10.21;100.00
43436;BME280;36399;51.444;-2.018;2023-06-01T00:49:09;101996.31;;;10.29;100.00
43436;BME280;36399;51.444;-2.018;2023-06-01T00:51:35;102005.63;;;10.21;100.00
43436;BME280;36399;51.444;-2.018;2023-06-01T00:54:01;102008.91;;;10.17;100.00
43436;BME280;36399;51.444;-2.018;2023-06-01T00:56:27;102017.19;;;10.26;100.00
43436;BME280;36399;51.444;-2.018;2023-06-01T00:58:54;102012.78;;;10.25;100.00
43436;BME280;36399;51.444;-2.018;2023-06-01T01:01:20;102015.41;;;10.25;100.00
43436;BME280;36399;51.444;-2.018;2023-06-01T01:03:49;101999.47;;;10.20;100.00
43436;BME280;36399;51.444;-2.018;2023-06-01T01:06:24;102004.34;;;10.11;100.00
43436;BME280;36399;51.444;-2.018;2023-06-01T01:11:35;102013.03;;;10.10;100.00
43436;BME280;36399;51.444;-2.018;2023-06-01T01:14:14;102012.16;;;10.09;100.00
43436;BME280;36399;51.444;-2.018;2023-06-01T01:17:00;102020.06;;;10.11;100.00
43436;BME280;36399;51.444;-2.018;2023-06-01T01:22:20;102030.88;;;9.96;100.00
43436;BME280;36399;51.444;-2.018;2023-06-01T01:30:15;102037.91;;;9.97;100.00
43436;BME280;36399;51.444;-2.018;2023-06-01T01:32:48;102035.88;;;9.90;100.00
43436;BME280;36399;51.444;-2.018;2023-06-01T01:35:15;102039.31;;;9.89;100.00
43436;BME280;36399;51.444;-2.018;2023-06-01T01:37:54;102034.19;;;9.92;100.00
43436;BME280;36399;51.444;-2.018;2023-06-01T01:40:21;102018.06;;;9.83;100.00
43436;BME280;36399;51.444;-2.018;2023-06-01T01:42:48;102022.94;;;9.74;100.00
43436;BME280;36399;51.444;-2.018;2023-06-01T01:45:16;102028.19;;;9.74;100.00
43436;BME280;36399;51.444;-2.018;2023-06-01T01:47:54;102025.94;;;9.62;100.00
43436;BME280;36399;51.444;-2.018;2023-06-01T01:50:28;102023.44;;;9.65;100.00
43436;BME280;36399;51.444;-2.018;2023-06-01T01:52:56;102017.19;;;9.62;100.00
43436;BME280;36399;51.444;-2.018;2023-06-01T01:55:23;102025.25;;;9.66;100.00
43436;BME280;36399;51.444;-2.018;2023-06-01T01:57:50;102023.44;;;9.65;100.00
43436;BME280;36399;51.444;-2.018;2023-06-01T02:00:17;102020.75;;;9.64;100.00
43436;BME280;36399;51.444;-2.018;2023-06-01T02:02:47;102024.28;;;9.64;100.00
43436;BME280;36399;51.444;-2.018;2023-06-01T02:05:13;102024.47;;;9.69;100.00
43436;BME280;36399;51.444;-2.018;2023-06-01T02:07:39;102034.47;;;9.57;100.00
43436;BME280;36399;51.444;-2.018;2023-06-01T02:10:05;102021.94;;;9.49;100.00
43436;BME280;36399;51.444;-2.018;2023-06-01T02:12:31;102027.69;;;9.41;100.00
43436;BME280;36399;51.444;-2.018;2023-06-01T02:14:57;102037.28;;;9.40;100.00
43436;BME280;36399;51.444;-2.018;2023-06-01T02:17:23;102033.94;;;9.44;100.00
43436;BME280;36399;51.444;-2.018;2023-06-01T02:19:50;102014.63;;;9.42;100.00
43436;BME280;36399;51.444;-2.018;2023-06-01T02:22:16;102025.75;;;9.37;100.00
43436;BME280;36399;51.444;-2.018;2023-06-01T02:24:42;102019.94;;;9.44;100.00
43436;BME280;36399;51.444;-2.018;2023-06-01T02:27:08;102031.38;;;9.46;100.00
43436;BME280;36399;51.444;-2.018;2023-06-01T02:29:34;102019.19;;;9.46;100.00
43436;BME280;36399;51.444;-2.018;2023-06-01T02:32:00;102022.88;;;9.52;100.00
43436;BME280;36399;51.444;-2.018;2023-06-01T02:34:26;102023.69;;;9.30;100.00
43436;BME280;36399;51.444;-2.018;2023-06-01T02:36:52;102021.00;;;9.28;100.00
43436;BME280;36399;51.444;-2.018;2023-06-01T02:39:22;102036.44;;;9.22;100.00
43436;BME280;36399;51.444;-2.018;2023-06-01T02:41:48;102039.34;;;9.28;100.00
43436;BME280;36399;51.444;-2.018;2023-06-01T02:44:14;102041.13;;;9.29;100.00
43436;BME280;36399;51.444;-2.018;2023-06-01T02:46:40;102033.13;;;9.26;100.00
43436;BME280;36399;51.444;-2.018;2023-06-01T02:49:06;102032.56;;;9.33;100.00
43436;BME280;36399;51.444;-2.018;2023-06-01T02:51:32;102027.13;;;9.29;100.00
43436;BME280;36399;51.444;-2.018;2023-06-01T02:53:59;102034.28;;;9.33;100.00
43436;BME280;36399;51.444;-2.018;2023-06-01T02:56:25;102027.69;;;9.22;100.00
43436;BME280;36399;51.444;-2.018;2023-06-01T02:58:52;102032.16;;;9.24;100.00
43436;BME280;36399;51.444;-2.018;2023-06-01T03:01:18;102027.63;;;9.20;100.00
43436;BME280;36399;51.444;-2.018;2023-06-01T03:03:45;102023.66;;;9.09;100.00
43436;BME280;36399;51.444;-2.018;2023-06-01T03:06:11;102024.53;;;9.09;100.00
43436;BME280;36399;51.444;-2.018;2023-06-01T03:08:39;102025.44;;;9.10;100.00
43436;BME280;36399;51.444;-2.018;2023-06-01T03:11:05;102030.94;;;9.16;100.00
43436;BME280;36399;51.444;-2.018;2023-06-01T03:13:31;102026.81;;;9.21;100.00
43436;BME280;36399;51.444;-2.018;2023-06-01T03:15:57;102024.44;;;9.27;100.00
43436;BME280;36399;51.444;-2.018;2023-06-01T03:18:23;102027.56;;;9.18;100.00
43436;BME280;36399;51.444;-2.018;2023-06-01T03:20:49;102008.59;;;9.24;100.00
43436;BME280;36399;51.444;-2.018;2023-06-01T03:23:15;102002.19;;;9.17;100.00
43436;BME280;36399;51.444;-2.018;2023-06-01T03:25:41;101999.13;;;9.28;100.00
43436;BME280;36399;51.444;-2.018;2023-06-01T03:28:08;102001.69;;;9.26;100.00
43436;BME280;36399;51.444;-2.018;2023-06-01T03:30:34;101998.25;;;9.27;100.00
43436;BME280;36399;51.444;-2.018;2023-06-01T03:32:59;101995.88;;;9.33;100.00
43436;BME280;36399;51.444;-2.018;2023-06-01T03:35:26;101993.00;;;9.27;100.00
43436;BME280;36399;51.444;-2.018;2023-06-01T03:37:52;101989.22;;;9.21;100.00
43436;BME280;36399;51.444;-2.018;2023-06-01T03:40:18;101988.84;;;9.11;100.00
43436;BME280;36399;51.444;-2.018;2023-06-01T03:42:46;102000.06;;;9.09;100.00
43436;BME280;36399;51.444;-2.018;2023-06-01T03:45:13;101992.78;;;9.02;100.00
43436;BME280;36399;51.444;-2.018;2023-06-01T03:47:39;102002.44;;;9.03;100.00
43436;BME280;36399;51.444;-2.018;2023-06-01T03:50:07;101999.25;;;9.10;100.00
43436;BME280;36399;51.444;-2.018;2023-06-01T03:52:34;101997.06;;;9.00;100.00
43436;BME280;36399;51.444;-2.018;2023-06-01T03:55:03;102006.00;;;9.05;100.00
43436;BME280;36399;51.444;-2.018;2023-06-01T03:57:36;102008.56;;;9.03;100.00
43436;BME280;36399;51.444;-2.018;2023-06-01T04:00:07;102000.06;;;9.09;100.00
43436;BME280;36399;51.444;-2.018;2023-06-01T04:02:54;102007.94;;;9.09;100.00
43436;BME280;36399;51.444;-2.018;2023-06-01T04:05:21;101997.25;;;9.04;100.00
43436;BME280;36399;51.444;-2.018;2023-06-01T04:07:48;101995.94;;;9.14;100.00
43436;BME280;36399;51.444;-2.018;2023-06-01T04:10:15;101989.03;;;9.16;100.00
43436;BME280;36399;51.444;-2.018;2023-06-01T04:12:43;101988.78;;;9.10;100.00
43436;BME280;36399;51.444;-2.018;2023-06-01T04:15:10;101989.66;;;9.10;100.00
43436;BME280;36399;51.444;-2.018;2023-06-01T04:17:37;101983.47;;;9.08;100.00
43436;BME280;36399;51.444;-2.018;2023-06-01T04:20:05;101987.25;;;9.15;100.00
43436;BME280;36399;51.444;-2.018;2023-06-01T04:22:35;101992.59;;;9.18;100.00
43436;BME280;36399;51.444;-2.018;2023-06-01T04:25:05;101978.47;;;9.14;100.00
43436;BME280;36399;51.444;-2.018;2023-06-01T04:27:31;101984.63;;;9.15;100.00
43436;BME280;36399;51.444;-2.018;2023-06-01T04:29:57;101975.22;;;9.20;100.00
43436;BME280;36399;51.444;-2.018;2023-06-01T04:32:26;101976.31;;;9.25;100.00
43436;BME280;36399;51.444;-2.018;2023-06-01T04:34:53;101974.59;;;9.26;100.00
43436;BME280;36399;51.444;-2.018;2023-06-01T04:37:19;101971.78;;;9.21;100.00
43436;BME280;36399;51.444;-2.018;2023-06-01T04:39:47;101978.09;;;9.26;100.00
43436;BME280;36399;51.444;-2.018;2023-06-01T04:42:17;101967.16;;;9.36;100.00
43436;BME280;36399;51.444;-2.018;2023-06-01T04:44:45;101966.78;;;9.27;100.00
43436;BME280;36399;51.444;-2.018;2023-06-01T04:47:18;101961.41;;;9.24;100.00
43436;BME280;36399;51.444;-2.018;2023-06-01T04:49:46;101963.84;;;9.20;100.00
43436;BME280;36399;51.444;-2.018;2023-06-01T04:52:12;101967.16;;;9.36;100.00
43436;BME280;36399;51.444;-2.018;2023-06-01T04:54:40;101960.00;;;9.32;100.00
43436;BME280;36399;51.444;-2.018;2023-06-01T04:57:06;101956.97;;;9.42;100.00
43436;BME280;36399;51.444;-2.018;2023-06-01T04:59:32;101956.06;;;9.42;100.00
43436;BME280;36399;51.444;-2.018;2023-06-01T05:01:59;101955.06;;;9.38;100.00
43436;BME280;36399;51.444;-2.018;2023-06-01T05:04:25;101947.81;;;9.54;100.00
43436;BME280;36399;51.444;-2.018;2023-06-01T05:06:51;101955.38;;;9.46;100.00
43436;BME280;36399;51.444;-2.018;2023-06-01T05:09:18;101950.31;;;9.51;100.00
43436;BME280;36399;51.444;-2.018;2023-06-01T05:11:44;101949.59;;;9.55;100.00
43436;BME280;36399;51.444;-2.018;2023-06-01T05:14:10;101952.44;;;9.38;100.00
43436;BME280;36399;51.444;-2.018;2023-06-01T05:16:36;101949.22;;;9.45;100.00
43436;BME280;36399;51.444;-2.018;2023-06-01T05:19:02;101959.59;;;9.42;100.00
43436;BME280;36399;51.444;-2.018;2023-06-01T05:21:28;101949.66;;;9.56;100.00
43436;BME280;36399;51.444;-2.018;2023-06-01T05:23:54;101957.09;;;9.45;100.00
43436;BME280;36399;51.444;-2.018;2023-06-01T05:26:20;101958.25;;;9.52;100.00
43436;BME280;36399;51.444;-2.018;2023-06-01T05:28:47;101955.69;;;9.54;100.00
43436;BME280;36399;51.444;-2.018;2023-06-01T05:31:13;101957.81;;;9.41;100.00
43436;BME280;36399;51.444;-2.018;2023-06-01T05:33:39;101953.34;;;9.39;100.00
43436;BME280;36399;51.444;-2.018;2023-06-01T05:36:06;101959.00;;;9.49;100.00
43436;BME280;36399;51.444;-2.018;2023-06-01T05:38:32;101952.22;;;9.55;100.00
43436;BME280;36399;51.444;-2.018;2023-06-01T05:40:57;101943.66;;;9.59;100.00
43436;BME280;36399;51.444;-2.018;2023-06-01T05:43:23;101937.16;;;9.49;100.00
43436;BME280;36399;51.444;-2.018;2023-06-01T05:45:49;101932.09;;;9.54;100.00
43436;BME280;36399;51.444;-2.018;2023-06-01T05:48:15;101934.53;;;9.49;100.00
43436;BME280;36399;51.444;-2.018;2023-06-01T05:50:42;101933.63;;;9.48;100.00
43436;BME280;36399;51.444;-2.018;2023-06-01T05:53:08;101945.44;;;9.60;100.00
43436;BME280;36399;51.444;-2.018;2023-06-01T05:55:35;101943.59;;;9.79;100.00
43436;BME280;36399;51.444;-2.018;2023-06-01T05:58:01;101930.41;;;9.99;100.00
43436;BME280;36399;51.444;-2.018;2023-06-01T06:00:27;101913.88;;;10.01;100.00
43436;BME280;36399;51.444;-2.018;2023-06-01T06:02:53;101901.88;;;10.08;100.00
43436;BME280;36399;51.444;-2.018;2023-06-01T06:05:19;101895.47;;;10.00;100.00
43436;BME280;36399;51.444;-2.018;2023-06-01T06:07:45;101887.03;;;9.86;100.00
43436;BME280;36399;51.444;-2.018;2023-06-01T06:10:12;101889.81;;;9.89;100.00
43436;BME280;36399;51.444;-2.018;2023-06-01T06:12:38;101899.69;;;9.96;100.00
43436;BME280;36399;51.444;-2.018;2023-06-01T06:15:04;101890.25;;;10.01;100.00
43436;BME280;36399;51.444;-2.018;2023-06-01T06:17:31;101886.69;;;10.22;100.00
43436;BME280;36399;51.444;-2.018;2023-06-01T06:19:57;101874.78;;;10.31;100.00
43436;BME280;36399;51.444;-2.018;2023-06-01T06:22:23;101870.06;;;10.45;100.00
43436;BME280;36399;51.444;-2.018;2023-06-01T06:24:49;101872.94;;;10.29;100.00
43436;BME280;36399;51.444;-2.018;2023-06-01T06:27:15;101870.06;;;10.45;100.00
43436;BME280;36399;51.444;-2.018;2023-06-01T06:29:41;101863.03;;;10.44;100.00
43436;BME280;36399;51.444;-2.018;2023-06-01T06:32:07;101859.41;;;10.66;100.00
43436;BME280;36399;51.444;-2.018;2023-06-01T06:34:33;101856.94;;;10.70;100.00
43436;BME280;36399;51.444;-2.018;2023-06-01T06:37:03;101859.34;;;10.90;100.00
43436;BME280;36399;51.444;-2.018;2023-06-01T06:39:29;101844.00;;;11.02;100.00
43436;BME280;36399;51.444;-2.018;2023-06-01T06:41:55;101845.69;;;11.00;100.00
43436;BME280;36399;51.444;-2.018;2023-06-01T06:44:24;101835.38;;;11.06;100.00
43436;BME280;36399;51.444;-2.018;2023-06-01T06:46:50;101842.63;;;11.13;100.00
43436;BME280;36399;51.444;-2.018;2023-06-01T06:49:16;101832.31;;;11.19;100.00
43436;BME280;36399;51.444;-2.018;2023-06-01T06:51:44;101832.00;;;11.10;100.00
43436;BME280;36399;51.444;-2.018;2023-06-01T06:54:10;101826.84;;;11.13;100.00
43436;BME280;36399;51.444;-2.018;2023-06-01T06:56:36;101832.78;;;11.34;100.00
43436;BME280;36399;51.444;-2.018;2023-06-01T06:59:02;101822.03;;;11.27;100.00
43436;BME280;36399;51.444;-2.018;2023-06-01T07:01:28;101827.34;;;11.28;100.00
43436;BME280;36399;51.444;-2.018;2023-06-01T07:03:54;101818.69;;;11.32;100.00
43436;BME280;36399;51.444;-2.018;2023-06-01T07:06:21;101822.69;;;11.47;100.00
43436;BME280;36399;51.444;-2.018;2023-06-01T07:08:48;101816.41;;;11.43;100.00
43436;BME280;36399;51.444;-2.018;2023-06-01T07:11:15;101808.69;;;11.48;100.00
43436;BME280;36399;51.444;-2.018;2023-06-01T07:13:41;101810.66;;;11.55;100.00
43436;BME280;36399;51.444;-2.018;2023-06-01T07:16:07;101810.72;;;11.86;100.00
43436;BME280;36399;51.444;-2.018;2023-06-01T07:18:33;101802.75;;;11.83;100.00
43436;BME280;36399;51.444;-2.018;2023-06-01T07:20:59;101796.94;;;11.95;100.00
43436;BME280;36399;51.444;-2.018;2023-06-01T07:23:25;101807.09;;;11.53;100.00
43436;BME280;36399;51.444;-2.018;2023-06-01T07:25:51;101832.59;;;11.28;100.00
43436;BME280;36399;51.444;-2.018;2023-06-01T07:28:18;101829.13;;;11.29;100.00
43436;BME280;36399;51.444;-2.018;2023-06-01T07:30:44;101831.88;;;11.34;100.00
43436;BME280;36399;51.444;-2.018;2023-06-01T07:33:10;101839.34;;;11.20;100.00
43436;BME280;36399;51.444;-2.018;2023-06-01T07:35:37;101833.00;;;11.14;100.00
43436;BME280;36399;51.444;-2.018;2023-06-01T07:38:03;101836.91;;;11.26;100.00
43436;BME280;36399;51.444;-2.018;2023-06-01T07:40:29;101826.16;;;11.19;100.00
43436;BME280;36399;51.444;-2.018;2023-06-01T07:42:56;101833.94;;;11.16;100.00
43436;BME280;36399;51.444;-2.018;2023-06-01T07:45:22;101834.28;;;11.26;100.00
43436;BME280;36399;51.444;-2.018;2023-06-01T07:47:48;101825.84;;;11.36;100.00
43436;BME280;36399;51.444;-2.018;2023-06-01T07:50:14;101835.63;;;11.69;100.00
43436;BME280;36399;51.444;-2.018;2023-06-01T07:52:40;101826.06;;;11.99;100.00
43436;BME280;36399;51.444;-2.018;2023-06-01T07:55:07;101799.03;;;12.38;100.00
43436;BME280;36399;51.444;-2.018;2023-06-01T07:57:35;101794.88;;;12.81;100.00
43436;BME280;36399;51.444;-2.018;2023-06-01T08:00:03;101775.66;;;12.85;100.00
43436;BME280;36399;51.444;-2.018;2023-06-01T08:02:33;101774.16;;;12.96;100.00
43436;BME280;36399;51.444;-2.018;2023-06-01T08:04:59;101768.19;;;12.34;100.00
43436;BME280;36399;51.444;-2.018;2023-06-01T08:07:25;101783.00;;;12.29;100.00
43436;BME280;36399;51.444;-2.018;2023-06-01T08:09:53;101783.22;;;12.38;100.00
43436;BME280;36399;51.444;-2.018;2023-06-01T08:12:19;101791.53;;;12.20;100.00
43436;BME280;36399;51.444;-2.018;2023-06-01T08:14:46;101781.13;;;12.25;100.00
43436;BME280;36399;51.444;-2.018;2023-06-01T08:17:13;101784.78;;;12.30;100.00
43436;BME280;36399;51.444;-2.018;2023-06-01T08:19:40;101790.28;;;12.39;100.00
43436;BME280;36399;51.444;-2.018;2023-06-01T08:22:07;101793.28;;;12.87;100.00
43436;BME280;36399;51.444;-2.018;2023-06-01T08:24:33;101772.78;;;13.49;100.00
43436;BME280;36399;51.444;-2.018;2023-06-01T08:26:59;101763.56;;;13.68;100.00
43436;BME280;36399;51.444;-2.018;2023-06-01T08:29:26;101751.19;;;13.66;100.00
43436;BME280;36399;51.444;-2.018;2023-06-01T08:31:52;101747.91;;;13.77;100.00
43436;BME280;36399;51.444;-2.018;2023-06-01T08:34:18;101735.94;;;13.96;100.00
43436;BME280;36399;51.444;-2.018;2023-06-01T08:36:46;101735.09;;;13.53;100.00
43436;BME280;36399;51.444;-2.018;2023-06-01T08:39:23;101747.41;;;13.53;100.00
43436;BME280;36399;51.444;-2.018;2023-06-01T08:44:26;101741.97;;;13.47;100.00
43436;BME280;36399;51.444;-2.018;2023-06-01T08:46:54;101754.88;;;13.33;100.00
43436;BME280;36399;51.444;-2.018;2023-06-01T08:49:21;101754.09;;;13.39;100.00
43436;BME280;36399;51.444;-2.018;2023-06-01T08:51:48;101753.31;;;13.05;100.00
43436;BME280;36399;51.444;-2.018;2023-06-01T08:54:16;101767.28;;;13.01;100.00
43436;BME280;36399;51.444;-2.018;2023-06-01T08:56:42;101768.91;;;12.96;100.00
43436;BME280;36399;51.444;-2.018;2023-06-01T08:59:11;101766.91;;;12.86;100.00
43436;BME280;36399;51.444;-2.018;2023-06-01T09:01:39;101771.00;;;13.09;100.00
43436;BME280;36399;51.444;-2.018;2023-06-01T09:04:05;101776.84;;;13.34;100.00
43436;BME280;36399;51.444;-2.018;2023-06-01T09:06:31;101752.09;;;13.68;100.00
43436;BME280;36399;51.444;-2.018;2023-06-01T09:08:59;101761.41;;;13.52;100.00
43436;BME280;36399;51.444;-2.018;2023-06-01T09:11:26;101756.59;;;13.72;100.00
43436;BME280;36399;51.444;-2.018;2023-06-01T09:13:52;101741.13;;;13.92;100.00
43436;BME280;36399;51.444;-2.018;2023-06-01T09:16:18;101743.22;;;13.63;100.00
43436;BME280;36399;51.444;-2.018;2023-06-01T09:18:52;101744.94;;;13.21;100.00
43436;BME280;36399;51.444;-2.018;2023-06-01T09:21:18;101754.66;;;13.24;100.00
43436;BME280;36399;51.444;-2.018;2023-06-01T09:23:44;101740.59;;;13.64;100.00
43436;BME280;36399;51.444;-2.018;2023-06-01T09:26:12;101726.91;;;13.83;100.00
43436;BME280;36399;51.444;-2.018;2023-06-01T09:28:54;101724.81;;;13.67;100.00
43436;BME280;36399;51.444;-2.018;2023-06-01T09:31:45;101721.75;;;13.89;100.00
43436;BME280;36399;51.444;-2.018;2023-06-01T09:34:13;101718.19;;;14.34;100.00
43436;BME280;36399;51.444;-2.018;2023-06-01T09:36:51;101708.06;;;14.57;100.00
43436;BME280;36399;51.444;-2.018;2023-06-01T09:39:17;101710.00;;;14.19;100.00
43436;BME280;36399;51.444;-2.018;2023-06-01T09:41:47;101716.72;;;14.50;100.00
43436;BME280;36399;51.444;-2.018;2023-06-01T09:44:14;101701.75;;;14.50;100.00
43436;BME280;36399;51.444;-2.018;2023-06-01T09:46:51;101690.13;;;14.95;100.00
43436;BME280;36399;51.444;-2.018;2023-06-01T09:51:47;101702.06;;;14.67;100.00
43436;BME280;36399;51.444;-2.018;2023-06-01T09:54:24;101696.97;;;15.43;100.00
43436;BME280;36399;51.444;-2.018;2023-06-01T09:56:52;101680.31;;;16.30;100.00
43436;BME280;36399;51.444;-2.018;2023-06-01T09:59:19;101671.81;;;16.68;100.00
43436;BME280;36399;51.444;-2.018;2023-06-01T10:01:49;101645.78;;;17.69;100.00
43436;BME280;36399;51.444;-2.018;2023-06-01T10:04:21;101646.75;;;17.95;100.00
43436;BME280;36399;51.444;-2.018;2023-06-01T10:06:50;101643.22;;;18.14;100.00
43436;BME280;36399;51.444;-2.018;2023-06-01T10:09:21;101646.53;;;17.31;100.00
43436;BME280;36399;51.444;-2.018;2023-06-01T10:11:49;101653.09;;;16.54;100.00
43436;BME280;36399;51.444;-2.018;2023-06-01T10:14:16;101657.78;;;16.87;100.00
43436;BME280;36399;51.444;-2.018;2023-06-01T10:16:43;101652.63;;;17.15;100.00
43436;BME280;36399;51.444;-2.018;2023-06-01T10:19:11;101648.41;;;17.65;100.00
43436;BME280;36399;51.444;-2.018;2023-06-01T10:21:38;101644.84;;;17.63;100.00
43436;BME280;36399;51.444;-2.018;2023-06-01T10:24:08;101643.63;;;16.84;100.00
43436;BME280;36399;51.444;-2.018;2023-06-01T10:26:42;101661.25;;;16.73;100.00
43436;BME280;36399;51.444;-2.018;2023-06-01T10:29:10;101652.81;;;17.59;100.00
43436;BME280;36399;51.444;-2.018;2023-06-01T10:31:38;101648.16;;;17.01;100.00
43436;BME280;36399;51.444;-2.018;2023-06-01T10:34:05;101640.31;;;17.27;100.00
43436;BME280;36399;51.444;-2.018;2023-06-01T10:39:30;101637.91;;;18.11;100.00
43436;BME280;36399;51.444;-2.018;2023-06-01T10:41:57;101642.34;;;18.35;100.00
43436;BME280;36399;51.444;-2.018;2023-06-01T10:47:06;101642.34;;;18.32;100.00
43436;BME280;36399;51.444;-2.018;2023-06-01T10:52:36;101620.88;;;19.33;100.00
43436;BME280;36399;51.444;-2.018;2023-06-01T10:57:33;101622.38;;;20.90;100.00
43436;BME280;36399;51.444;-2.018;2023-06-01T11:02:51;101624.63;;;18.01;100.00
43436;BME280;36399;51.444;-2.018;2023-06-01T11:08:03;101623.69;;;17.70;100.00
43436;BME280;36399;51.444;-2.018;2023-06-01T11:13:18;101634.34;;;17.83;100.00
43436;BME280;36399;51.444;-2.018;2023-06-01T11:24:19;101622.75;;;20.55;100.00
43436;BME280;36399;51.444;-2.018;2023-06-01T11:26:47;101608.31;;;23.09;100.00
43436;BME280;36399;51.444;-2.018;2023-06-01T11:29:22;101597.56;;;24.27;88.04
43436;BME280;36399;51.444;-2.018;2023-06-01T11:31:52;101611.13;;;24.22;74.86
43436;BME280;36399;51.444;-2.018;2023-06-01T11:34:19;101607.09;;;22.30;84.18
43436;BME280;36399;51.444;-2.018;2023-06-01T11:36:55;101607.16;;;23.64;82.87
43436;BME280;36399;51.444;-2.018;2023-06-01T11:39:24;101600.44;;;23.02;85.08
43436;BME280;36399;51.444;-2.018;2023-06-01T11:41:52;101609.81;;;22.27;86.35
43436;BME280;36399;51.444;-2.018;2023-06-01T11:44:28;101595.69;;;23.57;86.79
43436;BME280;36399;51.444;-2.018;2023-06-01T11:46:55;101600.94;;;22.25;97.64
43436;BME280;36399;51.444;-2.018;2023-06-01T11:49:22;101598.59;;;20.68;100.00
43436;BME280;36399;51.444;-2.018;2023-06-01T11:51:49;101597.91;;;19.07;100.00
43436;BME280;36399;51.444;-2.018;2023-06-01T11:54:21;101608.44;;;19.38;100.00
43436;BME280;36399;51.444;-2.018;2023-06-01T11:56:47;101602.28;;;19.28;100.00
43436;BME280;36399;51.444;-2.018;2023-06-01T11:59:13;101601.44;;;20.50;100.00
43436;BME280;36399;51.444;-2.018;2023-06-01T12:01:44;101598.53;;;20.73;100.00
43436;BME280;36399;51.444;-2.018;2023-06-01T12:04:14;101593.41;;;21.31;100.00
43436;BME280;36399;51.444;-2.018;2023-06-01T12:06:40;101592.56;;;22.94;98.41
43436;BME280;36399;51.444;-2.018;2023-06-01T12:09:06;101584.09;;;21.61;99.89
43436;BME280;36399;51.444;-2.018;2023-06-01T12:11:33;101594.84;;;19.87;100.00
43436;BME280;36399;51.444;-2.018;2023-06-01T12:14:00;101580.00;;;19.40;100.00
43436;BME280;36399;51.444;-2.018;2023-06-01T12:19:17;101585.59;;;18.54;100.00
43436;BME280;36399;51.444;-2.018;2023-06-01T12:21:48;101598.78;;;19.06;100.00
43436;BME280;36399;51.444;-2.018;2023-06-01T12:24:15;101576.00;;;20.09;100.00
43436;BME280;36399;51.444;-2.018;2023-06-01T12:26:41;101577.78;;;20.09;100.00
43436;BME280;36399;51.444;-2.018;2023-06-01T12:29:08;101576.16;;;20.88;100.00
43436;BME280;36399;51.444;-2.018;2023-06-01T12:31:34;101585.03;;;20.90;100.00
43436;BME280;36399;51.444;-2.018;2023-06-01T12:34:00;101585.53;;;21.18;100.00
43436;BME280;36399;51.444;-2.018;2023-06-01T12:36:35;101576.88;;;21.00;100.00
43436;BME280;36399;51.444;-2.018;2023-06-01T12:39:03;101593.09;;;19.84;100.00
43436;BME280;36399;51.444;-2.018;2023-06-01T12:41:30;101585.59;;;21.15;100.00
43436;BME280;36399;51.444;-2.018;2023-06-01T12:43:57;101586.81;;;22.17;100.00
43436;BME280;36399;51.444;-2.018;2023-06-01T12:46:28;101570.47;;;22.80;91.45
43436;BME280;36399;51.444;-2.018;2023-06-01T12:49:13;101580.94;;;22.47;88.65
43436;BME280;36399;51.444;-2.018;2023-06-01T12:51:40;101576.31;;;23.03;93.60
43436;BME280;36399;51.444;-2.018;2023-06-01T12:54:06;101567.31;;;24.56;76.74
43436;BME280;36399;51.444;-2.018;2023-06-01T12:56:32;101579.19;;;23.74;75.95
43436;BME280;36399;51.444;-2.018;2023-06-01T12:58:58;101574.59;;;23.39;80.52
43436;BME280;36399;51.444;-2.018;2023-06-01T13:01:24;101561.53;;;22.82;86.07
43436;BME280;36399;51.444;-2.018;2023-06-01T13:03:49;101568.75;;;21.74;97.37
43436;BME280;36399;51.444;-2.018;2023-06-01T13:06:17;101567.13;;;22.21;100.00
43436;BME280;36399;51.444;-2.018;2023-06-01T13:08:43;101551.19;;;22.15;95.72
43436;BME280;36399;51.444;-2.018;2023-06-01T13:11:09;101570.53;;;21.73;100.00
43436;BME280;36399;51.444;-2.018;2023-06-01T13:13:35;101562.88;;;21.51;100.00
43436;BME280;36399;51.444;-2.018;2023-06-01T13:16:01;101566.69;;;21.93;100.00
43436;BME280;36399;51.444;-2.018;2023-06-01T13:18:28;101568.66;;;21.80;99.59
43436;BME280;36399;51.444;-2.018;2023-06-01T13:20:54;101573.47;;;21.57;100.00
43436;BME280;36399;51.444;-2.018;2023-06-01T13:23:22;101572.16;;;21.84;100.00